Buffalo, Texas
Current Conditions -  °F | °C
As of 12:55 PM on Friday 24 Oct 2014 (Local Time) from KLXY Reporting Station
Broken Clouds Broken Clouds  
Wind Chill: 74°   Ceiling: 4400
Heat Index: 74°   Visibility: 10mi
Dew Point: 58°   Wind: 6mph
Humidity: 57%   Direction: 190°S
Pressure: 30.17"   Gusts: NA
Location:  31.46°N, 96.06°W
Report Text: KLXY 241755Z AUTO 19005KT 10SM BKN044 23/14 A3017 RMK AO2 T02340144 10235 20131
Loading
Personal Weather Stations






























Interactive Weather Map
Tropical Storm Tracking
New forecast layout! Learn more

10-Day Weather Forecast

Advertisements
Track Severe Weather on mobile